NKS1326 KRIC-KFLL
Flight info
| Callsign | NKS1326 |
|---|---|
| Flight time | N/A |
| Altitude | 38000 |
| Route | HOUKY MAZON KOHLS Q97 PRMUS CUUDA3 |
| Aircraft | A20N/M-SDE2E3FGHIRWXY/LB1 |
Departure
| Time | 2026-05-03 21:10 |
|---|---|
| Airport | Richmond International Airport (KRIC) |
Arrival
| Time | N/A |
|---|---|
| Airport | Fort Lauderdale Hollywood International Airport (KFLL) |
| Time | Latitude | Longitude | Altitude | Speed | Heading |
|---|---|---|---|---|---|
| 2026-05-03 20:37 | 37.50858 | -77.33066 | 176 ft | 0 kts | 330° |
| 2026-05-03 20:51 | 37.50857 | -77.33066 | 176 ft | 0 kts | 330° |
| 2026-05-03 20:51 | 37.50853 | -77.33063 | 176 ft | 2 kts | 330° |
| 2026-05-03 20:51 | 37.50839 | -77.33052 | 176 ft | 2 kts | 329° |
| 2026-05-03 20:52 | 37.50825 | -77.33042 | 176 ft | 2 kts | 328° |
| 2026-05-03 20:52 | 37.50811 | -77.33030 | 176 ft | 2 kts | 326° |
| 2026-05-03 20:52 | 37.50797 | -77.33019 | 176 ft | 2 kts | 323° |
| 2026-05-03 20:52 | 37.50784 | -77.33006 | 176 ft | 2 kts | 318° |
| 2026-05-03 20:53 | 37.50772 | -77.32991 | 176 ft | 2 kts | 307° |
| 2026-05-03 20:53 | 37.50765 | -77.32977 | 176 ft | 1 kts | 304° |
| 2026-05-03 20:53 | 37.50765 | -77.32976 | 176 ft | 0 kts | 306° |
| 2026-05-03 20:57 | 37.50765 | -77.32977 | 176 ft | 0 kts | 306° |
| 2026-05-03 20:57 | 37.50776 | -77.32990 | 176 ft | 6 kts | 327° |
| 2026-05-03 20:57 | 37.50828 | -77.32972 | 176 ft | 6 kts | 29° |
| 2026-05-03 20:57 | 37.50850 | -77.32957 | 176 ft | 5 kts | 29° |
| 2026-05-03 20:58 | 37.50881 | -77.32935 | 176 ft | 5 kts | 29° |
| 2026-05-03 20:58 | 37.50910 | -77.32916 | 176 ft | 4 kts | 29° |
| 2026-05-03 20:58 | 37.50936 | -77.32896 | 176 ft | 6 kts | 38° |
| 2026-05-03 20:58 | 37.50955 | -77.32846 | 176 ft | 7 kts | 71° |
| 2026-05-03 20:59 | 37.50946 | -77.32799 | 176 ft | 6 kts | 140° |
| 2026-05-03 20:59 | 37.50889 | -77.32806 | 176 ft | 11 kts | 197° |
| 2026-05-03 20:59 | 37.50816 | -77.32830 | 176 ft | 11 kts | 192° |
| 2026-05-03 20:59 | 37.50744 | -77.32851 | 176 ft | 10 kts | 193° |
| 2026-05-03 21:00 | 37.50674 | -77.32871 | 176 ft | 10 kts | 193° |
| 2026-05-03 21:00 | 37.50628 | -77.32884 | 175 ft | 10 kts | 193° |
| 2026-05-03 21:00 | 37.50539 | -77.32911 | 176 ft | 10 kts | 193° |
| 2026-05-03 21:00 | 37.50476 | -77.32906 | 176 ft | 9 kts | 139° |
| 2026-05-03 21:01 | 37.50453 | -77.32840 | 176 ft | 8 kts | 104° |
| 2026-05-03 21:01 | 37.50445 | -77.32782 | 177 ft | 7 kts | 96° |
| 2026-05-03 21:01 | 37.50439 | -77.32701 | 176 ft | 12 kts | 95° |
| 2026-05-03 21:01 | 37.50432 | -77.32596 | 176 ft | 12 kts | 94° |
| 2026-05-03 21:02 | 37.50426 | -77.32497 | 176 ft | 11 kts | 94° |
| 2026-05-03 21:02 | 37.50420 | -77.32404 | 176 ft | 10 kts | 94° |
| 2026-05-03 21:02 | 37.50415 | -77.32317 | 176 ft | 10 kts | 94° |
| 2026-05-03 21:02 | 37.50410 | -77.32235 | 176 ft | 9 kts | 94° |
| 2026-05-03 21:03 | 37.50406 | -77.32157 | 176 ft | 10 kts | 94° |
| 2026-05-03 21:03 | 37.50401 | -77.32062 | 176 ft | 12 kts | 94° |
| 2026-05-03 21:03 | 37.50394 | -77.31951 | 176 ft | 13 kts | 94° |
| 2026-05-03 21:03 | 37.50388 | -77.31836 | 176 ft | 13 kts | 93° |
| 2026-05-03 21:04 | 37.50384 | -77.31727 | 176 ft | 12 kts | 93° |
| 2026-05-03 21:04 | 37.50368 | -77.31630 | 176 ft | 11 kts | 124° |
| 2026-05-03 21:04 | 37.50298 | -77.31571 | 176 ft | 13 kts | 149° |
| 2026-05-03 21:04 | 37.50222 | -77.31514 | 176 ft | 13 kts | 149° |
| 2026-05-03 21:05 | 37.50134 | -77.31444 | 176 ft | 19 kts | 147° |
| 2026-05-03 21:05 | 37.49997 | -77.31336 | 176 ft | 26 kts | 148° |
| 2026-05-03 21:05 | 37.49842 | -77.31218 | 176 ft | 26 kts | 149° |
| 2026-05-03 21:05 | 37.49693 | -77.31097 | 176 ft | 25 kts | 146° |
| 2026-05-03 21:06 | 37.49558 | -77.30986 | 176 ft | 14 kts | 147° |
| 2026-05-03 21:06 | 37.49513 | -77.30950 | 176 ft | 5 kts | 147° |
| 2026-05-03 21:06 | 37.49503 | -77.30942 | 176 ft | 0 kts | 147° |
| 2026-05-03 21:08 | 37.49492 | -77.30930 | 176 ft | 4 kts | 129° |
| 2026-05-03 21:08 | 37.49500 | -77.30865 | 176 ft | 11 kts | 56° |
| 2026-05-03 21:08 | 37.49544 | -77.30784 | 176 ft | 11 kts | 56° |
| 2026-05-03 21:08 | 37.49592 | -77.30720 | 176 ft | 10 kts | 17° |
| 2026-05-03 21:09 | 37.49648 | -77.30746 | 176 ft | 8 kts | 326° |
| 2026-05-03 21:09 | 37.49759 | -77.30838 | 176 ft | 40 kts | 326° |
| 2026-05-03 21:09 | 37.50178 | -77.31180 | 176 ft | 102 kts | 327° |
| 2026-05-03 21:09 | 37.50949 | -77.31797 | 177 ft | 157 kts | 327° |
| 2026-05-03 21:10 | 37.51897 | -77.32515 | 645 ft | 162 kts | 326° |
| 2026-05-03 21:10 | 37.52899 | -77.33260 | 1248 ft | 171 kts | 325° |
| 2026-05-03 21:10 | 37.53835 | -77.34139 | 2035 ft | 165 kts | 314° |
| 2026-05-03 21:10 | 37.54764 | -77.35150 | 2503 ft | 191 kts | 320° |
| 2026-05-03 21:11 | 37.55895 | -77.36270 | 2836 ft | 226 kts | 322° |
| 2026-05-03 21:11 | 37.57409 | -77.37109 | 3437 ft | 250 kts | 350° |
| 2026-05-03 21:11 | 37.59161 | -77.36866 | 4339 ft | 260 kts | 18° |
| 2026-05-03 21:11 | 37.60681 | -77.35599 | 5268 ft | 269 kts | 46° |
| 2026-05-03 21:12 | 37.61597 | -77.33531 | 6187 ft | 277 kts | 73° |
| 2026-05-03 21:12 | 37.61689 | -77.31087 | 7023 ft | 285 kts | 99° |
| 2026-05-03 21:12 | 37.60912 | -77.28768 | 7777 ft | 293 kts | 127° |
| 2026-05-03 21:12 | 37.59454 | -77.26949 | 8546 ft | 298 kts | 144° |
| 2026-05-03 21:13 | 37.57707 | -77.25511 | 9343 ft | 302 kts | 153° |
| 2026-05-03 21:13 | 37.55831 | -77.24279 | 10128 ft | 307 kts | 158° |
| 2026-05-03 21:13 | 37.53821 | -77.23154 | 10523 ft | 327 kts | 161° |
| 2026-05-03 21:13 | 37.51639 | -77.22066 | 10817 ft | 348 kts | 163° |
| 2026-05-03 21:14 | 37.49294 | -77.21016 | 11105 ft | 367 kts | 168° |
| 2026-05-03 21:14 | 37.46776 | -77.20134 | 11497 ft | 382 kts | 169° |
| 2026-05-03 21:14 | 37.44181 | -77.19279 | 12165 ft | 388 kts | 170° |
| 2026-05-03 21:14 | 37.41546 | -77.18451 | 12925 ft | 392 kts | 171° |
| 2026-05-03 21:15 | 37.38882 | -77.17638 | 13681 ft | 396 kts | 171° |
| 2026-05-03 21:15 | 37.36191 | -77.16828 | 14363 ft | 400 kts | 172° |
| 2026-05-03 21:15 | 37.33463 | -77.16012 | 15019 ft | 405 kts | 172° |
| 2026-05-03 21:15 | 37.30709 | -77.15187 | 15669 ft | 409 kts | 172° |
| 2026-05-03 21:16 | 37.27966 | -77.14363 | 16321 ft | 414 kts | 172° |
| 2026-05-03 21:16 | 37.25151 | -77.13517 | 16972 ft | 418 kts | 172° |
| 2026-05-03 21:16 | 37.22308 | -77.12661 | 17606 ft | 422 kts | 172° |
| 2026-05-03 21:16 | 37.19433 | -77.11795 | 18212 ft | 427 kts | 172° |
| 2026-05-03 21:17 | 37.16535 | -77.10922 | 18745 ft | 431 kts | 172° |
| 2026-05-03 21:17 | 37.14557 | -77.10326 | 19099 ft | 434 kts | 172° |
| 2026-05-03 21:17 | 37.10644 | -77.09149 | 19801 ft | 438 kts | 173° |
| 2026-05-03 21:17 | 37.07668 | -77.08254 | 20312 ft | 442 kts | 173° |
| 2026-05-03 21:18 | 37.04668 | -77.07353 | 20814 ft | 446 kts | 173° |
| 2026-05-03 21:18 | 37.01638 | -77.06444 | 21317 ft | 449 kts | 173° |
| 2026-05-03 21:18 | 36.98589 | -77.05531 | 21830 ft | 452 kts | 174° |
| 2026-05-03 21:18 | 36.95514 | -77.04610 | 22331 ft | 456 kts | 174° |
| 2026-05-03 21:19 | 36.92420 | -77.03684 | 22825 ft | 459 kts | 174° |
| 2026-05-03 21:19 | 36.89299 | -77.02752 | 23304 ft | 462 kts | 174° |
| 2026-05-03 21:19 | 36.86160 | -77.01815 | 23767 ft | 465 kts | 174° |
| 2026-05-03 21:19 | 36.83003 | -77.00872 | 24179 ft | 468 kts | 175° |
| 2026-05-03 21:20 | 36.79834 | -76.99927 | 24592 ft | 470 kts | 175° |
| 2026-05-03 21:20 | 36.76644 | -76.98975 | 25000 ft | 472 kts | 175° |
| 2026-05-03 21:20 | 36.73442 | -76.98021 | 25399 ft | 474 kts | 175° |
| 2026-05-03 21:20 | 36.70227 | -76.97064 | 25798 ft | 476 kts | 175° |
| 2026-05-03 21:21 | 36.66996 | -76.96104 | 26178 ft | 478 kts | 175° |
| 2026-05-03 21:21 | 36.63758 | -76.95142 | 26549 ft | 480 kts | 175° |
| 2026-05-03 21:21 | 36.60494 | -76.94232 | 26894 ft | 477 kts | 180° |
| 2026-05-03 21:21 | 36.57228 | -76.93869 | 27238 ft | 465 kts | 190° |
| 2026-05-03 21:22 | 36.54097 | -76.94201 | 27663 ft | 451 kts | 199° |
| 2026-05-03 21:22 | 36.51086 | -76.95077 | 28205 ft | 438 kts | 206° |
| 2026-05-03 21:22 | 36.48230 | -76.96291 | 28750 ft | 429 kts | 211° |
| 2026-05-03 21:22 | 36.45486 | -76.97687 | 29266 ft | 424 kts | 213° |
| 2026-05-03 21:23 | 36.42800 | -76.99166 | 29759 ft | 420 kts | 214° |
| 2026-05-03 21:23 | 36.40138 | -77.00664 | 30234 ft | 418 kts | 214° |
| 2026-05-03 21:23 | 36.37495 | -77.02145 | 30608 ft | 417 kts | 214° |
| 2026-05-03 21:23 | 36.34843 | -77.03608 | 30982 ft | 416 kts | 214° |
| 2026-05-03 21:24 | 36.32199 | -77.05043 | 31356 ft | 414 kts | 213° |
| 2026-05-03 21:24 | 36.29562 | -77.06456 | 31730 ft | 413 kts | 213° |
| 2026-05-03 21:24 | 36.26924 | -77.07857 | 32100 ft | 411 kts | 213° |
| 2026-05-03 21:24 | 36.24301 | -77.09245 | 32446 ft | 410 kts | 213° |
| 2026-05-03 21:25 | 36.21718 | -77.10610 | 32790 ft | 408 kts | 213° |
| 2026-05-03 21:25 | 36.19073 | -77.12006 | 33143 ft | 406 kts | 213° |
| 2026-05-03 21:25 | 36.16510 | -77.13358 | 33484 ft | 405 kts | 213° |
| 2026-05-03 21:25 | 36.13934 | -77.14718 | 33812 ft | 403 kts | 213° |
| 2026-05-03 21:26 | 36.11346 | -77.16083 | 34138 ft | 401 kts | 213° |
| 2026-05-03 21:26 | 36.08789 | -77.17431 | 34412 ft | 400 kts | 213° |
| 2026-05-03 21:26 | 36.06227 | -77.18782 | 34637 ft | 399 kts | 213° |
| 2026-05-03 21:26 | 36.03675 | -77.20128 | 34852 ft | 399 kts | 213° |
| 2026-05-03 21:27 | 36.01129 | -77.21469 | 35073 ft | 398 kts | 213° |
| 2026-05-03 21:27 | 35.98580 | -77.22811 | 35292 ft | 397 kts | 213° |
| 2026-05-03 21:27 | 35.96041 | -77.24146 | 35517 ft | 396 kts | 213° |
| 2026-05-03 21:27 | 35.93580 | -77.25614 | 35728 ft | 388 kts | 219° |
| 2026-05-03 21:28 | 35.91326 | -77.27381 | 35930 ft | 381 kts | 224° |
| 2026-05-03 21:28 | 35.89187 | -77.29303 | 36136 ft | 379 kts | 225° |
| 2026-05-03 21:28 | 35.87094 | -77.31274 | 36330 ft | 377 kts | 226° |
| 2026-05-03 21:28 | 35.85036 | -77.33261 | 36527 ft | 376 kts | 226° |
| 2026-05-03 21:29 | 35.82987 | -77.35259 | 36723 ft | 375 kts | 226° |
| 2026-05-03 21:29 | 35.80944 | -77.37252 | 36917 ft | 374 kts | 226° |
| 2026-05-03 21:29 | 35.78900 | -77.39241 | 37106 ft | 374 kts | 226° |
| 2026-05-03 21:29 | 35.76855 | -77.41222 | 37281 ft | 373 kts | 226° |
| 2026-05-03 21:30 | 35.74814 | -77.43192 | 37463 ft | 372 kts | 226° |
| 2026-05-03 21:30 | 35.72774 | -77.45156 | 37630 ft | 372 kts | 226° |
| 2026-05-03 21:30 | 35.70737 | -77.47114 | 37804 ft | 371 kts | 226° |
| 2026-05-03 21:30 | 35.68730 | -77.49041 | 37975 ft | 370 kts | 226° |
| 2026-05-03 21:31 | 35.64657 | -77.52952 | 38083 ft | 373 kts | 226° |
| 2026-05-03 21:31 | 35.60564 | -77.56873 | 38089 ft | 372 kts | 226° |
| 2026-05-03 21:32 | 35.56487 | -77.60772 | 38091 ft | 371 kts | 226° |
| 2026-05-03 21:32 | 35.52412 | -77.64665 | 38097 ft | 370 kts | 226° |
| 2026-05-03 21:33 | 35.48347 | -77.68544 | 38094 ft | 370 kts | 226° |
| 2026-05-03 21:33 | 35.44282 | -77.72418 | 38092 ft | 369 kts | 226° |
| 2026-05-03 21:34 | 35.40229 | -77.76276 | 38091 ft | 369 kts | 226° |
| 2026-05-03 21:34 | 35.36178 | -77.80126 | 38110 ft | 368 kts | 226° |
| 2026-05-03 21:35 | 35.32126 | -77.83974 | 38110 ft | 368 kts | 226° |
| 2026-05-03 21:35 | 35.28108 | -77.87783 | 38110 ft | 368 kts | 226° |
| 2026-05-03 21:36 | 35.24061 | -77.91614 | 38110 ft | 367 kts | 226° |
| 2026-05-03 21:36 | 35.20016 | -77.95439 | 38104 ft | 367 kts | 226° |
| 2026-05-03 21:37 | 35.15977 | -77.99254 | 38095 ft | 367 kts | 226° |
| 2026-05-03 21:37 | 35.11937 | -78.03063 | 38093 ft | 366 kts | 226° |
| 2026-05-03 21:38 | 35.07900 | -78.06866 | 38088 ft | 366 kts | 226° |
| 2026-05-03 21:38 | 35.03867 | -78.10660 | 38090 ft | 366 kts | 225° |
| 2026-05-03 21:39 | 34.99838 | -78.14445 | 38102 ft | 365 kts | 225° |
| 2026-05-03 21:39 | 34.95813 | -78.18222 | 38091 ft | 365 kts | 225° |
| 2026-05-03 21:40 | 34.91797 | -78.21986 | 38089 ft | 364 kts | 225° |
| 2026-05-03 21:40 | 34.87781 | -78.25745 | 38091 ft | 364 kts | 225° |
| 2026-05-03 21:41 | 34.83788 | -78.29478 | 38094 ft | 363 kts | 225° |
| 2026-05-03 21:41 | 34.79785 | -78.33215 | 38093 ft | 363 kts | 225° |
| 2026-05-03 21:42 | 34.75778 | -78.36952 | 38091 ft | 363 kts | 225° |
| 2026-05-03 21:42 | 34.71772 | -78.40682 | 38093 ft | 362 kts | 225° |
| 2026-05-03 21:43 | 34.67773 | -78.44402 | 38090 ft | 362 kts | 225° |
| 2026-05-03 21:43 | 34.63775 | -78.48115 | 38089 ft | 361 kts | 225° |
| 2026-05-03 21:44 | 34.59781 | -78.51821 | 38090 ft | 361 kts | 225° |
| 2026-05-03 21:44 | 34.55819 | -78.55492 | 38090 ft | 361 kts | 225° |
| 2026-05-03 21:45 | 34.51831 | -78.59183 | 38091 ft | 360 kts | 225° |
| 2026-05-03 21:45 | 34.47843 | -78.62870 | 38092 ft | 360 kts | 225° |
| 2026-05-03 21:46 | 34.43862 | -78.66546 | 38108 ft | 360 kts | 225° |
| 2026-05-03 21:46 | 34.40545 | -78.69591 | 38106 ft | 360 kts | 224° |
| 2026-05-03 21:47 | 34.36445 | -78.73113 | 38106 ft | 362 kts | 223° |
| 2026-05-03 21:47 | 34.32295 | -78.76547 | 38110 ft | 362 kts | 223° |
| 2026-05-03 21:48 | 34.28140 | -78.79980 | 38107 ft | 361 kts | 223° |
| 2026-05-03 21:48 | 34.24003 | -78.83415 | 38109 ft | 360 kts | 223° |
| 2026-05-03 21:49 | 34.19874 | -78.86849 | 38108 ft | 360 kts | 223° |
| 2026-05-03 21:49 | 34.15751 | -78.90279 | 38111 ft | 359 kts | 223° |
| 2026-05-03 21:50 | 34.11660 | -78.93681 | 38112 ft | 359 kts | 223° |
| 2026-05-03 21:50 | 34.07549 | -78.97094 | 38119 ft | 358 kts | 223° |
| 2026-05-03 21:51 | 34.03442 | -79.00500 | 38122 ft | 358 kts | 223° |
| 2026-05-03 21:51 | 33.99343 | -79.03896 | 38118 ft | 358 kts | 223° |
| 2026-05-03 21:52 | 33.95239 | -79.07291 | 38121 ft | 357 kts | 223° |
| 2026-05-03 21:52 | 33.91146 | -79.10674 | 38116 ft | 357 kts | 223° |
| 2026-05-03 21:53 | 33.87047 | -79.14057 | 38117 ft | 357 kts | 223° |
| 2026-05-03 21:53 | 33.82945 | -79.17438 | 38116 ft | 357 kts | 223° |
| 2026-05-03 21:54 | 33.78847 | -79.20812 | 38119 ft | 357 kts | 223° |
| 2026-05-03 21:54 | 33.74777 | -79.24159 | 38115 ft | 357 kts | 223° |
| 2026-05-03 21:55 | 33.70684 | -79.27522 | 38117 ft | 356 kts | 223° |
| 2026-05-03 21:55 | 33.66596 | -79.30898 | 38122 ft | 355 kts | 223° |
| 2026-05-03 21:56 | 33.62561 | -79.34317 | 38122 ft | 355 kts | 223° |
| 2026-05-03 21:56 | 33.58535 | -79.37750 | 38125 ft | 355 kts | 223° |
| 2026-05-03 21:57 | 33.54513 | -79.41172 | 38126 ft | 354 kts | 223° |
| 2026-05-03 21:57 | 33.50489 | -79.44583 | 38127 ft | 354 kts | 223° |
| 2026-05-03 21:58 | 33.46461 | -79.47993 | 38117 ft | 354 kts | 223° |
| 2026-05-03 21:58 | 33.42433 | -79.51399 | 38120 ft | 354 kts | 223° |
| 2026-05-03 21:59 | 33.38407 | -79.54798 | 38128 ft | 354 kts | 223° |
| 2026-05-03 21:59 | 33.34384 | -79.58192 | 38123 ft | 354 kts | 223° |
| 2026-05-03 22:00 | 33.30382 | -79.61564 | 38121 ft | 354 kts | 223° |
| 2026-05-03 22:00 | 33.26357 | -79.64950 | 38120 ft | 354 kts | 223° |
| 2026-05-03 22:01 | 33.22333 | -79.68333 | 38118 ft | 353 kts | 223° |
| 2026-05-03 22:01 | 33.18316 | -79.71707 | 38118 ft | 353 kts | 223° |
| 2026-05-03 22:02 | 33.14296 | -79.75078 | 38116 ft | 353 kts | 223° |
| 2026-05-03 22:02 | 33.10277 | -79.78445 | 38118 ft | 353 kts | 223° |
| 2026-05-03 22:03 | 33.06252 | -79.81814 | 38118 ft | 353 kts | 223° |
| 2026-05-03 22:03 | 33.02223 | -79.85181 | 38118 ft | 353 kts | 223° |
| 2026-05-03 22:04 | 32.98197 | -79.88542 | 38115 ft | 353 kts | 223° |
| 2026-05-03 22:04 | 32.94176 | -79.91896 | 38116 ft | 353 kts | 223° |
| 2026-05-03 22:05 | 32.90173 | -79.95229 | 38116 ft | 353 kts | 223° |
| 2026-05-03 22:05 | 32.86148 | -79.98579 | 38107 ft | 353 kts | 223° |
| 2026-05-03 22:06 | 32.82125 | -80.01922 | 38109 ft | 353 kts | 223° |
| 2026-05-03 22:06 | 32.78103 | -80.05262 | 38121 ft | 353 kts | 222° |
| 2026-05-03 22:07 | 32.74082 | -80.08596 | 38123 ft | 352 kts | 222° |
| 2026-05-03 22:07 | 32.70061 | -80.11927 | 38114 ft | 352 kts | 222° |
| 2026-05-03 22:08 | 32.66039 | -80.15254 | 38120 ft | 352 kts | 222° |
| 2026-05-03 22:08 | 32.62017 | -80.18578 | 38121 ft | 352 kts | 222° |
| 2026-05-03 22:09 | 32.57993 | -80.21901 | 38121 ft | 352 kts | 222° |
| 2026-05-03 22:10 | 32.51913 | -80.26812 | 38119 ft | 356 kts | 218° |
| 2026-05-03 22:10 | 32.47607 | -80.29669 | 38120 ft | 357 kts | 217° |
| 2026-05-03 22:11 | 32.43271 | -80.32411 | 38134 ft | 344 kts | 217° |
| 2026-05-03 22:11 | 32.39077 | -80.35032 | 38117 ft | 335 kts | 217° |
| 2026-05-03 22:12 | 32.34960 | -80.37634 | 38128 ft | 335 kts | 217° |
| 2026-05-03 22:12 | 32.32940 | -80.38914 | 38124 ft | 335 kts | 217° |
| 2026-05-03 22:13 | 32.29742 | -80.40937 | 38125 ft | 335 kts | 217° |
| 2026-05-03 22:13 | 32.25623 | -80.43537 | 38128 ft | 335 kts | 217° |
| 2026-05-03 22:14 | 32.21502 | -80.46133 | 38129 ft | 335 kts | 217° |
| 2026-05-03 22:14 | 32.17388 | -80.48720 | 38133 ft | 335 kts | 217° |
| 2026-05-03 22:15 | 32.13271 | -80.51307 | 38131 ft | 335 kts | 217° |
| 2026-05-03 22:15 | 32.09156 | -80.53891 | 38131 ft | 335 kts | 217° |
| 2026-05-03 22:16 | 32.05036 | -80.56475 | 38131 ft | 335 kts | 217° |
| 2026-05-03 22:16 | 32.00920 | -80.59054 | 38129 ft | 335 kts | 217° |
| 2026-05-03 22:17 | 31.96827 | -80.61616 | 38129 ft | 335 kts | 217° |
| 2026-05-03 22:17 | 31.92708 | -80.64192 | 38123 ft | 335 kts | 217° |
| 2026-05-03 22:18 | 31.88589 | -80.66765 | 38133 ft | 335 kts | 217° |
| 2026-05-03 22:18 | 31.84473 | -80.69332 | 38128 ft | 335 kts | 217° |
| 2026-05-03 22:19 | 31.80360 | -80.71896 | 38129 ft | 335 kts | 217° |
| 2026-05-03 22:19 | 31.76269 | -80.74444 | 38126 ft | 335 kts | 217° |
| 2026-05-03 22:20 | 31.72153 | -80.77005 | 38127 ft | 335 kts | 217° |
| 2026-05-03 22:20 | 31.68038 | -80.79562 | 38127 ft | 335 kts | 217° |
| 2026-05-03 22:21 | 31.63926 | -80.82115 | 38127 ft | 334 kts | 217° |
| 2026-05-03 22:21 | 31.59811 | -80.84667 | 38128 ft | 334 kts | 217° |
| 2026-05-03 22:22 | 31.55696 | -80.87217 | 38127 ft | 334 kts | 217° |
| 2026-05-03 22:22 | 31.51576 | -80.89767 | 38131 ft | 334 kts | 217° |
| 2026-05-03 22:23 | 31.47458 | -80.92314 | 38130 ft | 335 kts | 217° |
| 2026-05-03 22:23 | 31.44360 | -80.94228 | 38132 ft | 335 kts | 217° |
| 2026-05-04 00:36 | 31.40448 | -80.96651 | 38124 ft | 343 kts | 216° |
| 2026-05-04 00:37 | 31.36213 | -80.99267 | 38119 ft | 348 kts | 216° |
| 2026-05-04 00:37 | 31.31926 | -81.01901 | 38121 ft | 347 kts | 216° |
| 2026-05-04 00:38 | 31.27601 | -81.04441 | 38119 ft | 352 kts | 212° |
| 2026-05-04 00:38 | 31.22792 | -81.06005 | 38126 ft | 369 kts | 199° |
| 2026-05-04 00:39 | 31.17598 | -81.06382 | 38121 ft | 377 kts | 194° |
| 2026-05-04 00:39 | 31.12296 | -81.06470 | 38128 ft | 385 kts | 193° |